sensor_id;sensor_type;location;lat;lon;timestamp;P1;durP1;ratioP1;P2;durP2;ratioP2
35276;SDS011;21401;50.878;8.050;2022-08-06T00:02:17;4.30;;;1.95;;
35276;SDS011;21401;50.878;8.050;2022-08-06T00:04:48;4.63;;;1.38;;
35276;SDS011;21401;50.878;8.050;2022-08-06T00:07:14;1.73;;;1.35;;
35276;SDS011;21401;50.878;8.050;2022-08-06T00:09:40;2.13;;;1.52;;
35276;SDS011;21401;50.878;8.050;2022-08-06T00:12:06;3.00;;;1.80;;
35276;SDS011;21401;50.878;8.050;2022-08-06T00:14:34;4.30;;;2.10;;
35276;SDS011;21401;50.878;8.050;2022-08-06T00:19:33;3.53;;;1.77;;
35276;SDS011;21401;50.878;8.050;2022-08-06T00:21:58;3.83;;;1.90;;
35276;SDS011;21401;50.878;8.050;2022-08-06T00:24:26;2.72;;;1.90;;
35276;SDS011;21401;50.878;8.050;2022-08-06T00:26:54;3.58;;;2.20;;
35276;SDS011;21401;50.878;8.050;2022-08-06T00:29:20;4.43;;;2.00;;
35276;SDS011;21401;50.878;8.050;2022-08-06T00:31:45;5.25;;;2.78;;
35276;SDS011;21401;50.878;8.050;2022-08-06T00:34:11;3.35;;;2.00;;
35276;SDS011;21401;50.878;8.050;2022-08-06T00:36:36;2.40;;;1.48;;
35276;SDS011;21401;50.878;8.050;2022-08-06T00:39:03;2.60;;;1.40;;
35276;SDS011;21401;50.878;8.050;2022-08-06T00:41:31;2.22;;;1.40;;
35276;SDS011;21401;50.878;8.050;2022-08-06T00:43:59;5.35;;;1.50;;
35276;SDS011;21401;50.878;8.050;2022-08-06T00:46:26;2.88;;;1.40;;
35276;SDS011;21401;50.878;8.050;2022-08-06T00:48:55;1.45;;;1.00;;
35276;SDS011;21401;50.878;8.050;2022-08-06T00:51:23;2.00;;;1.30;;
35276;SDS011;21401;50.878;8.050;2022-08-06T00:53:54;3.50;;;1.13;;
35276;SDS011;21401;50.878;8.050;2022-08-06T00:56:20;5.97;;;1.20;;
35276;SDS011;21401;50.878;8.050;2022-08-06T00:58:48;2.80;;;1.38;;
35276;SDS011;21401;50.878;8.050;2022-08-06T01:01:14;1.92;;;1.27;;
35276;SDS011;21401;50.878;8.050;2022-08-06T01:03:39;0.88;;;0.82;;
35276;SDS011;21401;50.878;8.050;2022-08-06T01:06:05;4.20;;;0.98;;
35276;SDS011;21401;50.878;8.050;2022-08-06T01:08:35;3.30;;;1.30;;
35276;SDS011;21401;50.878;8.050;2022-08-06T01:11:01;3.08;;;0.90;;
35276;SDS011;21401;50.878;8.050;2022-08-06T01:13:30;4.07;;;1.20;;
35276;SDS011;21401;50.878;8.050;2022-08-06T01:15:58;2.03;;;1.50;;
35276;SDS011;21401;50.878;8.050;2022-08-06T01:18:38;3.00;;;1.30;;
35276;SDS011;21401;50.878;8.050;2022-08-06T01:26:32;5.90;;;1.20;;
35276;SDS011;21401;50.878;8.050;2022-08-06T01:29:20;4.72;;;1.25;;
35276;SDS011;21401;50.878;8.050;2022-08-06T01:32:03;1.88;;;1.05;;
35276;SDS011;21401;50.878;8.050;2022-08-06T01:37:15;1.42;;;1.00;;
35276;SDS011;21401;50.878;8.050;2022-08-06T01:39:50;5.50;;;1.35;;
35276;SDS011;21401;50.878;8.050;2022-08-06T01:42:20;3.72;;;1.02;;
35276;SDS011;21401;50.878;8.050;2022-08-06T01:44:49;2.00;;;1.23;;
35276;SDS011;21401;50.878;8.050;2022-08-06T01:47:19;3.08;;;1.50;;
35276;SDS011;21401;50.878;8.050;2022-08-06T01:49:51;3.88;;;1.30;;
35276;SDS011;21401;50.878;8.050;2022-08-06T01:54:48;3.67;;;1.40;;
35276;SDS011;21401;50.878;8.050;2022-08-06T01:57:15;4.85;;;1.27;;
35276;SDS011;21401;50.878;8.050;2022-08-06T01:59:47;5.35;;;2.08;;
35276;SDS011;21401;50.878;8.050;2022-08-06T02:02:20;5.30;;;1.60;;
35276;SDS011;21401;50.878;8.050;2022-08-06T02:04:47;2.85;;;1.30;;
35276;SDS011;21401;50.878;8.050;2022-08-06T02:07:17;3.92;;;1.67;;
35276;SDS011;21401;50.878;8.050;2022-08-06T02:09:47;3.05;;;1.23;;
35276;SDS011;21401;50.878;8.050;2022-08-06T02:12:16;4.32;;;1.33;;
35276;SDS011;21401;50.878;8.050;2022-08-06T02:14:48;3.33;;;1.35;;
35276;SDS011;21401;50.878;8.050;2022-08-06T02:17:18;6.97;;;1.80;;
35276;SDS011;21401;50.878;8.050;2022-08-06T02:19:49;2.97;;;1.50;;
35276;SDS011;21401;50.878;8.050;2022-08-06T02:22:16;4.55;;;1.50;;
35276;SDS011;21401;50.878;8.050;2022-08-06T02:24:43;6.00;;;1.92;;
35276;SDS011;21401;50.878;8.050;2022-08-06T02:27:10;3.60;;;1.38;;
35276;SDS011;21401;50.878;8.050;2022-08-06T02:29:38;5.13;;;1.80;;
35276;SDS011;21401;50.878;8.050;2022-08-06T02:32:09;3.03;;;2.22;;
35276;SDS011;21401;50.878;8.050;2022-08-06T02:34:36;5.65;;;1.90;;
35276;SDS011;21401;50.878;8.050;2022-08-06T02:39:35;5.85;;;1.67;;
35276;SDS011;21401;50.878;8.050;2022-08-06T02:42:08;5.93;;;1.75;;
35276;SDS011;21401;50.878;8.050;2022-08-06T02:47:21;8.50;;;3.00;;
35276;SDS011;21401;50.878;8.050;2022-08-06T02:50:04;5.55;;;2.10;;
35276;SDS011;21401;50.878;8.050;2022-08-06T02:55:02;3.10;;;1.98;;
35276;SDS011;21401;50.878;8.050;2022-08-06T02:57:38;3.17;;;1.70;;
35276;SDS011;21401;50.878;8.050;2022-08-06T03:00:07;3.78;;;1.65;;
35276;SDS011;21401;50.878;8.050;2022-08-06T03:02:38;2.13;;;1.58;;
35276;SDS011;21401;50.878;8.050;2022-08-06T03:05:07;4.23;;;1.93;;
35276;SDS011;21401;50.878;8.050;2022-08-06T03:07:40;2.63;;;1.92;;
35276;SDS011;21401;50.878;8.050;2022-08-06T03:10:09;3.20;;;2.05;;
35276;SDS011;21401;50.878;8.050;2022-08-06T03:12:38;3.55;;;2.20;;
35276;SDS011;21401;50.878;8.050;2022-08-06T03:15:05;7.68;;;2.50;;
35276;SDS011;21401;50.878;8.050;2022-08-06T03:17:33;5.68;;;2.60;;
35276;SDS011;21401;50.878;8.050;2022-08-06T03:20:02;4.60;;;2.40;;
35276;SDS011;21401;50.878;8.050;2022-08-06T03:22:33;4.03;;;2.42;;
35276;SDS011;21401;50.878;8.050;2022-08-06T03:25:01;3.60;;;2.35;;
35276;SDS011;21401;50.878;8.050;2022-08-06T03:27:30;4.68;;;2.30;;
35276;SDS011;21401;50.878;8.050;2022-08-06T03:29:56;2.78;;;2.00;;
35276;SDS011;21401;50.878;8.050;2022-08-06T03:32:24;4.88;;;2.00;;
35276;SDS011;21401;50.878;8.050;2022-08-06T03:34:51;2.67;;;1.80;;
35276;SDS011;21401;50.878;8.050;2022-08-06T03:37:21;3.08;;;1.77;;
35276;SDS011;21401;50.878;8.050;2022-08-06T03:39:48;4.00;;;2.20;;
35276;SDS011;21401;50.878;8.050;2022-08-06T03:42:18;2.78;;;1.88;;
35276;SDS011;21401;50.878;8.050;2022-08-06T03:44:43;5.25;;;2.08;;
35276;SDS011;21401;50.878;8.050;2022-08-06T03:47:11;3.17;;;2.20;;
35276;SDS011;21401;50.878;8.050;2022-08-06T03:49:42;3.58;;;2.00;;
35276;SDS011;21401;50.878;8.050;2022-08-06T03:52:19;3.03;;;1.95;;
35276;SDS011;21401;50.878;8.050;2022-08-06T03:54:53;3.00;;;2.50;;
35276;SDS011;21401;50.878;8.050;2022-08-06T03:57:23;4.15;;;2.25;;
35276;SDS011;21401;50.878;8.050;2022-08-06T03:59:52;4.20;;;1.88;;
35276;SDS011;21401;50.878;8.050;2022-08-06T04:02:24;3.07;;;2.43;;
35276;SDS011;21401;50.878;8.050;2022-08-06T04:04:57;4.43;;;2.20;;
35276;SDS011;21401;50.878;8.050;2022-08-06T04:07:24;4.28;;;2.33;;
35276;SDS011;21401;50.878;8.050;2022-08-06T04:09:51;3.42;;;2.95;;
35276;SDS011;21401;50.878;8.050;2022-08-06T04:12:16;4.32;;;2.80;;
35276;SDS011;21401;50.878;8.050;2022-08-06T04:14:43;4.70;;;2.80;;
35276;SDS011;21401;50.878;8.050;2022-08-06T04:17:11;4.60;;;2.80;;
35276;SDS011;21401;50.878;8.050;2022-08-06T04:19:37;4.68;;;2.20;;
35276;SDS011;21401;50.878;8.050;2022-08-06T04:22:04;3.15;;;2.25;;
35276;SDS011;21401;50.878;8.050;2022-08-06T04:24:30;2.25;;;2.03;;
35276;SDS011;21401;50.878;8.050;2022-08-06T04:26:56;3.50;;;2.40;;
35276;SDS011;21401;50.878;8.050;2022-08-06T04:29:27;4.50;;;2.58;;
35276;SDS011;21401;50.878;8.050;2022-08-06T04:31:56;4.03;;;2.92;;
35276;SDS011;21401;50.878;8.050;2022-08-06T04:34:23;2.65;;;2.30;;
35276;SDS011;21401;50.878;8.050;2022-08-06T04:36:50;3.33;;;2.38;;
35276;SDS011;21401;50.878;8.050;2022-08-06T04:39:17;2.90;;;2.20;;
35276;SDS011;21401;50.878;8.050;2022-08-06T04:41:43;3.95;;;2.28;;
35276;SDS011;21401;50.878;8.050;2022-08-06T04:44:10;4.03;;;2.47;;
35276;SDS011;21401;50.878;8.050;2022-08-06T04:46:38;3.40;;;2.15;;
35276;SDS011;21401;50.878;8.050;2022-08-06T04:49:04;4.30;;;2.20;;
35276;SDS011;21401;50.878;8.050;2022-08-06T04:51:30;4.75;;;2.80;;
35276;SDS011;21401;50.878;8.050;2022-08-06T04:53:56;5.10;;;2.70;;
35276;SDS011;21401;50.878;8.050;2022-08-06T04:56:22;4.10;;;2.28;;
35276;SDS011;21401;50.878;8.050;2022-08-06T04:58:47;2.65;;;2.00;;
35276;SDS011;21401;50.878;8.050;2022-08-06T05:01:13;5.00;;;2.78;;
35276;SDS011;21401;50.878;8.050;2022-08-06T05:03:45;6.68;;;2.13;;
35276;SDS011;21401;50.878;8.050;2022-08-06T05:06:29;3.63;;;2.03;;
35276;SDS011;21401;50.878;8.050;2022-08-06T05:09:09;2.45;;;1.90;;
35276;SDS011;21401;50.878;8.050;2022-08-06T05:11:41;2.23;;;1.90;;
35276;SDS011;21401;50.878;8.050;2022-08-06T05:14:10;2.97;;;2.38;;
35276;SDS011;21401;50.878;8.050;2022-08-06T05:16:41;2.30;;;1.95;;
35276;SDS011;21401;50.878;8.050;2022-08-06T05:19:17;4.30;;;2.47;;
35276;SDS011;21401;50.878;8.050;2022-08-06T05:21:53;3.78;;;2.60;;
35276;SDS011;21401;50.878;8.050;2022-08-06T05:24:20;4.72;;;2.50;;
35276;SDS011;21401;50.878;8.050;2022-08-06T05:26:46;3.05;;;2.33;;
35276;SDS011;21401;50.878;8.050;2022-08-06T05:29:17;4.28;;;2.83;;
35276;SDS011;21401;50.878;8.050;2022-08-06T05:31:44;3.30;;;2.42;;
35276;SDS011;21401;50.878;8.050;2022-08-06T05:34:11;8.02;;;2.55;;
35276;SDS011;21401;50.878;8.050;2022-08-06T05:36:37;3.70;;;2.30;;
35276;SDS011;21401;50.878;8.050;2022-08-06T05:39:06;3.38;;;2.20;;
35276;SDS011;21401;50.878;8.050;2022-08-06T05:41:34;4.78;;;2.90;;
35276;SDS011;21401;50.878;8.050;2022-08-06T05:44:00;6.88;;;2.78;;
35276;SDS011;21401;50.878;8.050;2022-08-06T05:46:27;5.05;;;2.20;;
35276;SDS011;21401;50.878;8.050;2022-08-06T05:49:41;3.65;;;2.63;;
35276;SDS011;21401;50.878;8.050;2022-08-06T05:56:10;3.17;;;1.98;;
35276;SDS011;21401;50.878;8.050;2022-08-06T05:59:25;4.35;;;1.90;;
35276;SDS011;21401;50.878;8.050;2022-08-06T06:02:44;2.22;;;1.80;;
35276;SDS011;21401;50.878;8.050;2022-08-06T06:05:34;4.05;;;1.88;;
35276;SDS011;21401;50.878;8.050;2022-08-06T06:08:42;3.30;;;1.75;;
35276;SDS011;21401;50.878;8.050;2022-08-06T06:52:23;2.42;;;1.63;;
35276;SDS011;21401;50.878;8.050;2022-08-06T07:37:35;3.75;;;0.60;;
35276;SDS011;21401;50.878;8.050;2022-08-06T07:58:13;3.50;;;0.90;;
35276;SDS011;21401;50.878;8.050;2022-08-06T08:00:50;4.50;;;0.77;;
35276;SDS011;21401;50.878;8.050;2022-08-06T08:03:19;4.10;;;1.10;;
35276;SDS011;21401;50.878;8.050;2022-08-06T08:06:04;2.00;;;0.40;;
35276;SDS011;21401;50.878;8.050;2022-08-06T08:08:51;4.40;;;0.60;;
35276;SDS011;21401;50.878;8.050;2022-08-06T08:11:22;1.58;;;0.60;;
35276;SDS011;21401;50.878;8.050;2022-08-06T08:20:38;2.33;;;0.63;;
35276;SDS011;21401;50.878;8.050;2022-08-06T08:23:56;2.28;;;0.63;;
35276;SDS011;21401;50.878;8.050;2022-08-06T08:33:13;2.78;;;0.55;;
35276;SDS011;21401;50.878;8.050;2022-08-06T08:36:35;2.22;;;0.47;;
35276;SDS011;21401;50.878;8.050;2022-08-06T08:40:23;12.38;;;0.60;;
35276;SDS011;21401;50.878;8.050;2022-08-06T08:43:47;1.58;;;0.40;;
35276;SDS011;21401;50.878;8.050;2022-08-06T08:46:26;3.42;;;0.63;;
35276;SDS011;21401;50.878;8.050;2022-08-06T08:58:52;2.42;;;0.60;;
35276;SDS011;21401;50.878;8.050;2022-08-06T09:01:18;3.42;;;0.50;;
35276;SDS011;21401;50.878;8.050;2022-08-06T09:03:45;2.38;;;0.50;;
35276;SDS011;21401;50.878;8.050;2022-08-06T09:06:11;1.95;;;0.63;;
35276;SDS011;21401;50.878;8.050;2022-08-06T09:08:47;1.90;;;0.50;;
35276;SDS011;21401;50.878;8.050;2022-08-06T09:11:33;3.67;;;0.50;;
35276;SDS011;21401;50.878;8.050;2022-08-06T09:14:00;1.15;;;0.30;;
35276;SDS011;21401;50.878;8.050;2022-08-06T09:16:30;1.70;;;0.55;;
35276;SDS011;21401;50.878;8.050;2022-08-06T09:19:00;2.33;;;0.70;;
35276;SDS011;21401;50.878;8.050;2022-08-06T09:21:27;6.40;;;0.50;;
35276;SDS011;21401;50.878;8.050;2022-08-06T09:23:54;4.15;;;1.55;;
35276;SDS011;21401;50.878;8.050;2022-08-06T09:26:20;1.50;;;0.38;;
35276;SDS011;21401;50.878;8.050;2022-08-06T09:28:47;4.20;;;0.60;;
35276;SDS011;21401;50.878;8.050;2022-08-06T09:34:03;2.65;;;0.65;;
35276;SDS011;21401;50.878;8.050;2022-08-06T09:36:41;1.58;;;0.55;;
35276;SDS011;21401;50.878;8.050;2022-08-06T09:39:08;1.95;;;0.52;;
35276;SDS011;21401;50.878;8.050;2022-08-06T09:41:39;4.55;;;0.57;;
35276;SDS011;21401;50.878;8.050;2022-08-06T09:44:14;1.77;;;0.60;;
35276;SDS011;21401;50.878;8.050;2022-08-06T09:46:44;3.97;;;0.50;;
35276;SDS011;21401;50.878;8.050;2022-08-06T09:49:15;2.70;;;0.57;;
35276;SDS011;21401;50.878;8.050;2022-08-06T09:51:43;5.15;;;0.50;;
35276;SDS011;21401;50.878;8.050;2022-08-06T09:54:10;1.35;;;0.63;;
35276;SDS011;21401;50.878;8.050;2022-08-06T09:56:44;1.27;;;0.47;;
35276;SDS011;21401;50.878;8.050;2022-08-06T09:59:11;1.90;;;0.57;;
35276;SDS011;21401;50.878;8.050;2022-08-06T10:01:42;3.50;;;0.50;;
35276;SDS011;21401;50.878;8.050;2022-08-06T10:04:14;1.63;;;0.43;;
35276;SDS011;21401;50.878;8.050;2022-08-06T10:07:06;3.75;;;0.60;;
35276;SDS011;21401;50.878;8.050;2022-08-06T10:09:32;4.20;;;0.70;;
35276;SDS011;21401;50.878;8.050;2022-08-06T10:12:01;3.60;;;0.50;;
35276;SDS011;21401;50.878;8.050;2022-08-06T10:14:42;0.35;;;0.30;;
35276;SDS011;21401;50.878;8.050;2022-08-06T10:17:12;3.33;;;0.60;;
35276;SDS011;21401;50.878;8.050;2022-08-06T10:19:41;2.60;;;0.55;;
35276;SDS011;21401;50.878;8.050;2022-08-06T10:25:22;6.38;;;0.52;;
35276;SDS011;21401;50.878;8.050;2022-08-06T10:28:02;1.27;;;0.43;;
35276;SDS011;21401;50.878;8.050;2022-08-06T10:31:25;0.80;;;0.38;;
35276;SDS011;21401;50.878;8.050;2022-08-06T10:33:55;1.10;;;0.38;;
35276;SDS011;21401;50.878;8.050;2022-08-06T10:36:30;1.23;;;0.50;;
35276;SDS011;21401;50.878;8.050;2022-08-06T10:38:59;1.02;;;0.47;;
35276;SDS011;21401;50.878;8.050;2022-08-06T10:41:26;2.22;;;0.63;;
35276;SDS011;21401;50.878;8.050;2022-08-06T10:43:52;1.45;;;0.38;;
35276;SDS011;21401;50.878;8.050;2022-08-06T10:46:21;2.10;;;0.45;;
35276;SDS011;21401;50.878;8.050;2022-08-06T10:48:48;1.83;;;0.47;;
35276;SDS011;21401;50.878;8.050;2022-08-06T10:51:18;1.63;;;0.63;;
35276;SDS011;21401;50.878;8.050;2022-08-06T10:53:44;2.05;;;0.40;;
35276;SDS011;21401;50.878;8.050;2022-08-06T10:56:14;1.95;;;0.45;;
35276;SDS011;21401;50.878;8.050;2022-08-06T10:58:41;2.42;;;0.60;;
35276;SDS011;21401;50.878;8.050;2022-08-06T11:01:53;2.47;;;0.68;;
35276;SDS011;21401;50.878;8.050;2022-08-06T11:04:31;3.85;;;0.75;;
35276;SDS011;21401;50.878;8.050;2022-08-06T11:10:00;1.15;;;0.40;;
35276;SDS011;21401;50.878;8.050;2022-08-06T11:12:50;0.95;;;0.30;;
35276;SDS011;21401;50.878;8.050;2022-08-06T11:15:35;1.20;;;0.30;;
35276;SDS011;21401;50.878;8.050;2022-08-06T11:18:04;2.17;;;0.50;;
35276;SDS011;21401;50.878;8.050;2022-08-06T11:22:59;3.17;;;0.43;;
35276;SDS011;21401;50.878;8.050;2022-08-06T11:25:42;2.15;;;0.70;;
35276;SDS011;21401;50.878;8.050;2022-08-06T11:28:08;1.15;;;0.50;;
35276;SDS011;21401;50.878;8.050;2022-08-06T11:30:41;3.30;;;0.60;;
35276;SDS011;21401;50.878;8.050;2022-08-06T11:33:14;1.27;;;0.40;;
35276;SDS011;21401;50.878;8.050;2022-08-06T11:35:43;1.25;;;0.50;;
35276;SDS011;21401;50.878;8.050;2022-08-06T11:38:14;4.20;;;0.63;;
35276;SDS011;21401;50.878;8.050;2022-08-06T11:41:01;1.98;;;0.43;;
35276;SDS011;21401;50.878;8.050;2022-08-06T11:46:40;0.73;;;0.32;;
35276;SDS011;21401;50.878;8.050;2022-08-06T11:59:27;3.60;;;0.68;;
35276;SDS011;21401;50.878;8.050;2022-08-06T12:01:56;3.83;;;0.55;;
35276;SDS011;21401;50.878;8.050;2022-08-06T12:12:52;1.20;;;0.32;;
35276;SDS011;21401;50.878;8.050;2022-08-06T12:20:28;0.43;;;0.30;;
35276;SDS011;21401;50.878;8.050;2022-08-06T12:22:54;1.90;;;0.50;;
35276;SDS011;21401;50.878;8.050;2022-08-06T12:25:20;1.23;;;0.40;;
35276;SDS011;21401;50.878;8.050;2022-08-06T12:27:46;1.92;;;0.52;;
35276;SDS011;21401;50.878;8.050;2022-08-06T12:30:14;2.63;;;1.25;;
35276;SDS011;21401;50.878;8.050;2022-08-06T12:32:40;3.50;;;0.60;;
35276;SDS011;21401;50.878;8.050;2022-08-06T12:35:09;3.67;;;1.15;;
35276;SDS011;21401;50.878;8.050;2022-08-06T12:37:38;2.70;;;0.63;;
35276;SDS011;21401;50.878;8.050;2022-08-06T12:40:09;2.55;;;0.50;;
35276;SDS011;21401;50.878;8.050;2022-08-06T12:45:28;2.63;;;0.60;;
35276;SDS011;21401;50.878;8.050;2022-08-06T12:47:59;2.33;;;0.85;;
35276;SDS011;21401;50.878;8.050;2022-08-06T12:50:25;2.72;;;0.45;;
35276;SDS011;21401;50.878;8.050;2022-08-06T12:56:02;3.95;;;0.50;;
35276;SDS011;21401;50.878;8.050;2022-08-06T12:58:25;1.35;;;0.30;;
35276;SDS011;21401;50.878;8.050;2022-08-06T13:01:00;3.35;;;0.50;;
35276;SDS011;21401;50.878;8.050;2022-08-06T13:03:27;1.75;;;0.50;;
35276;SDS011;21401;50.878;8.050;2022-08-06T13:05:55;2.92;;;0.40;;
35276;SDS011;21401;50.878;8.050;2022-08-06T13:08:25;0.95;;;0.20;;
35276;SDS011;21401;50.878;8.050;2022-08-06T13:10:53;3.03;;;0.50;;
35276;SDS011;21401;50.878;8.050;2022-08-06T13:13:21;3.45;;;0.70;;
35276;SDS011;21401;50.878;8.050;2022-08-06T13:16:08;1.95;;;0.50;;
35276;SDS011;21401;50.878;8.050;2022-08-06T13:18:35;1.75;;;0.50;;
35276;SDS011;21401;50.878;8.050;2022-08-06T13:21:17;5.65;;;0.40;;
35276;SDS011;21401;50.878;8.050;2022-08-06T13:23:52;0.65;;;0.30;;
35276;SDS011;21401;50.878;8.050;2022-08-06T13:31:36;0.90;;;0.30;;
35276;SDS011;21401;50.878;8.050;2022-08-06T13:34:05;2.80;;;0.43;;
35276;SDS011;21401;50.878;8.050;2022-08-06T13:36:40;1.52;;;0.45;;
35276;SDS011;21401;50.878;8.050;2022-08-06T13:39:19;1.38;;;0.32;;
35276;SDS011;21401;50.878;8.050;2022-08-06T13:42:08;1.02;;;0.30;;
35276;SDS011;21401;50.878;8.050;2022-08-06T13:44:41;3.45;;;0.40;;
35276;SDS011;21401;50.878;8.050;2022-08-06T13:47:10;1.83;;;0.30;;
35276;SDS011;21401;50.878;8.050;2022-08-06T13:49:42;2.53;;;0.40;;
35276;SDS011;21401;50.878;8.050;2022-08-06T13:52:09;1.13;;;0.55;;
35276;SDS011;21401;50.878;8.050;2022-08-06T13:54:35;3.60;;;0.63;;
35276;SDS011;21401;50.878;8.050;2022-08-06T13:57:01;2.38;;;0.65;;
35276;SDS011;21401;50.878;8.050;2022-08-06T13:59:28;0.63;;;0.22;;
35276;SDS011;21401;50.878;8.050;2022-08-06T14:01:58;1.15;;;0.43;;
35276;SDS011;21401;50.878;8.050;2022-08-06T14:04:26;1.27;;;0.43;;
35276;SDS011;21401;50.878;8.050;2022-08-06T14:06:53;1.58;;;0.30;;
35276;SDS011;21401;50.878;8.050;2022-08-06T14:09:20;2.70;;;0.70;;
35276;SDS011;21401;50.878;8.050;2022-08-06T14:11:59;0.95;;;0.40;;
35276;SDS011;21401;50.878;8.050;2022-08-06T14:14:28;2.20;;;0.98;;
35276;SDS011;21401;50.878;8.050;2022-08-06T14:16:58;4.50;;;0.43;;
35276;SDS011;21401;50.878;8.050;2022-08-06T14:19:25;0.63;;;0.30;;
35276;SDS011;21401;50.878;8.050;2022-08-06T14:21:51;1.25;;;0.40;;
35276;SDS011;21401;50.878;8.050;2022-08-06T14:24:22;1.65;;;0.40;;
35276;SDS011;21401;50.878;8.050;2022-08-06T14:26:47;0.40;;;0.30;;
35276;SDS011;21401;50.878;8.050;2022-08-06T14:29:13;0.77;;;0.30;;
35276;SDS011;21401;50.878;8.050;2022-08-06T14:31:39;2.08;;;0.60;;
35276;SDS011;21401;50.878;8.050;2022-08-06T14:34:04;2.10;;;0.50;;
35276;SDS011;21401;50.878;8.050;2022-08-06T14:36:30;1.33;;;0.43;;
35276;SDS011;21401;50.878;8.050;2022-08-06T14:38:58;2.67;;;0.40;;
35276;SDS011;21401;50.878;8.050;2022-08-06T14:41:24;2.17;;;0.47;;
35276;SDS011;21401;50.878;8.050;2022-08-06T14:44:09;3.42;;;0.50;;
35276;SDS011;21401;50.878;8.050;2022-08-06T14:46:54;0.93;;;0.30;;
35276;SDS011;21401;50.878;8.050;2022-08-06T14:49:20;1.33;;;0.70;;
35276;SDS011;21401;50.878;8.050;2022-08-06T14:51:46;0.70;;;0.30;;
35276;SDS011;21401;50.878;8.050;2022-08-06T14:54:11;1.55;;;0.40;;
35276;SDS011;21401;50.878;8.050;2022-08-06T14:56:37;2.97;;;0.70;;
35276;SDS011;21401;50.878;8.050;2022-08-06T14:59:03;2.13;;;0.50;;
35276;SDS011;21401;50.878;8.050;2022-08-06T15:01:31;1.05;;;0.30;;
35276;SDS011;21401;50.878;8.050;2022-08-06T15:03:56;0.77;;;0.28;;
35276;SDS011;21401;50.878;8.050;2022-08-06T15:06:24;1.58;;;0.40;;
35276;SDS011;21401;50.878;8.050;2022-08-06T15:08:50;8.07;;;1.00;;
35276;SDS011;21401;50.878;8.050;2022-08-06T15:11:15;1.65;;;0.30;;
35276;SDS011;21401;50.878;8.050;2022-08-06T15:13:41;1.20;;;0.40;;
35276;SDS011;21401;50.878;8.050;2022-08-06T15:16:09;1.23;;;0.40;;
35276;SDS011;21401;50.878;8.050;2022-08-06T15:18:35;1.17;;;0.30;;
35276;SDS011;21401;50.878;8.050;2022-08-06T15:21:01;0.95;;;0.20;;
35276;SDS011;21401;50.878;8.050;2022-08-06T15:23:27;0.65;;;0.30;;
35276;SDS011;21401;50.878;8.050;2022-08-06T15:25:53;1.17;;;0.30;;
35276;SDS011;21401;50.878;8.050;2022-08-06T15:28:21;2.25;;;0.30;;
35276;SDS011;21401;50.878;8.050;2022-08-06T15:30:46;0.80;;;0.30;;
35276;SDS011;21401;50.878;8.050;2022-08-06T15:33:12;3.13;;;0.60;;
35276;SDS011;21401;50.878;8.050;2022-08-06T15:35:38;2.08;;;0.30;;
35276;SDS011;21401;50.878;8.050;2022-08-06T15:38:04;0.50;;;0.20;;
35276;SDS011;21401;50.878;8.050;2022-08-06T15:40:29;4.93;;;0.43;;
35276;SDS011;21401;50.878;8.050;2022-08-06T15:42:55;1.48;;;0.38;;
35276;SDS011;21401;50.878;8.050;2022-08-06T15:45:23;0.82;;;0.30;;
35276;SDS011;21401;50.878;8.050;2022-08-06T15:47:49;3.13;;;0.38;;
35276;SDS011;21401;50.878;8.050;2022-08-06T15:50:14;3.03;;;0.55;;
35276;SDS011;21401;50.878;8.050;2022-08-06T15:52:45;1.67;;;0.40;;
35276;SDS011;21401;50.878;8.050;2022-08-06T15:55:10;0.65;;;0.30;;
35276;SDS011;21401;50.878;8.050;2022-08-06T15:57:36;1.60;;;0.30;;
35276;SDS011;21401;50.878;8.050;2022-08-06T16:00:02;0.95;;;0.30;;
35276;SDS011;21401;50.878;8.050;2022-08-06T16:02:28;0.65;;;0.38;;
35276;SDS011;21401;50.878;8.050;2022-08-06T16:04:54;1.90;;;0.50;;
35276;SDS011;21401;50.878;8.050;2022-08-06T16:07:22;0.85;;;0.38;;
35276;SDS011;21401;50.878;8.050;2022-08-06T16:09:48;1.95;;;0.30;;
35276;SDS011;21401;50.878;8.050;2022-08-06T16:12:13;1.10;;;0.50;;
35276;SDS011;21401;50.878;8.050;2022-08-06T16:14:41;1.70;;;0.52;;
35276;SDS011;21401;50.878;8.050;2022-08-06T16:17:09;2.30;;;0.50;;
35276;SDS011;21401;50.878;8.050;2022-08-06T16:19:38;0.82;;;0.38;;
35276;SDS011;21401;50.878;8.050;2022-08-06T16:22:04;2.45;;;0.20;;
35276;SDS011;21401;50.878;8.050;2022-08-06T16:24:32;0.90;;;0.30;;
35276;SDS011;21401;50.878;8.050;2022-08-06T16:26:59;2.53;;;0.30;;
35276;SDS011;21401;50.878;8.050;2022-08-06T16:29:28;1.20;;;0.40;;
35276;SDS011;21401;50.878;8.050;2022-08-06T16:31:57;1.10;;;0.40;;
35276;SDS011;21401;50.878;8.050;2022-08-06T16:34:23;1.20;;;0.47;;
35276;SDS011;21401;50.878;8.050;2022-08-06T16:36:49;1.98;;;0.43;;
35276;SDS011;21401;50.878;8.050;2022-08-06T16:39:14;1.02;;;0.40;;
35276;SDS011;21401;50.878;8.050;2022-08-06T16:41:43;2.25;;;0.40;;
35276;SDS011;21401;50.878;8.050;2022-08-06T16:44:08;0.63;;;0.30;;
35276;SDS011;21401;50.878;8.050;2022-08-06T16:46:34;3.35;;;0.55;;
35276;SDS011;21401;50.878;8.050;2022-08-06T16:48:59;1.05;;;0.28;;
35276;SDS011;21401;50.878;8.050;2022-08-06T16:51:25;2.90;;;0.40;;
35276;SDS011;21401;50.878;8.050;2022-08-06T16:53:53;1.58;;;0.22;;
35276;SDS011;21401;50.878;8.050;2022-08-06T16:56:19;0.52;;;0.30;;
35276;SDS011;21401;50.878;8.050;2022-08-06T16:58:45;0.77;;;0.35;;
35276;SDS011;21401;50.878;8.050;2022-08-06T17:01:15;2.08;;;0.30;;
35276;SDS011;21401;50.878;8.050;2022-08-06T17:03:41;0.70;;;0.30;;
35276;SDS011;21401;50.878;8.050;2022-08-06T17:06:07;0.68;;;0.30;;
35276;SDS011;21401;50.878;8.050;2022-08-06T17:08:32;0.65;;;0.30;;
35276;SDS011;21401;50.878;8.050;2022-08-06T17:11:00;6.97;;;0.57;;
35276;SDS011;21401;50.878;8.050;2022-08-06T17:13:28;1.35;;;0.30;;
35276;SDS011;21401;50.878;8.050;2022-08-06T17:15:54;1.95;;;0.90;;
35276;SDS011;21401;50.878;8.050;2022-08-06T17:18:23;3.83;;;0.38;;
35276;SDS011;21401;50.878;8.050;2022-08-06T17:20:51;0.95;;;0.20;;
35276;SDS011;21401;50.878;8.050;2022-08-06T17:23:17;2.03;;;0.40;;
35276;SDS011;21401;50.878;8.050;2022-08-06T17:25:43;0.88;;;0.55;;
35276;SDS011;21401;50.878;8.050;2022-08-06T17:28:12;1.25;;;0.38;;
35276;SDS011;21401;50.878;8.050;2022-08-06T17:30:41;0.95;;;0.35;;
35276;SDS011;21401;50.878;8.050;2022-08-06T17:33:06;2.03;;;0.65;;
35276;SDS011;21401;50.878;8.050;2022-08-06T17:35:33;1.65;;;0.60;;
35276;SDS011;21401;50.878;8.050;2022-08-06T17:37:58;1.88;;;0.30;;
35276;SDS011;21401;50.878;8.050;2022-08-06T17:40:27;1.13;;;0.30;;
35276;SDS011;21401;50.878;8.050;2022-08-06T17:42:55;0.98;;;0.30;;
35276;SDS011;21401;50.878;8.050;2022-08-06T17:45:21;2.40;;;0.40;;
35276;SDS011;21401;50.878;8.050;2022-08-06T17:47:49;1.80;;;0.50;;
35276;SDS011;21401;50.878;8.050;2022-08-06T17:50:17;1.95;;;0.35;;
35276;SDS011;21401;50.878;8.050;2022-08-06T17:52:42;0.85;;;0.30;;
35276;SDS011;21401;50.878;8.050;2022-08-06T17:55:10;0.17;;;0.17;;
35276;SDS011;21401;50.878;8.050;2022-08-06T17:57:41;6.50;;;0.43;;
35276;SDS011;21401;50.878;8.050;2022-08-06T18:00:07;1.33;;;0.55;;
35276;SDS011;21401;50.878;8.050;2022-08-06T18:02:34;0.65;;;0.30;;
35276;SDS011;21401;50.878;8.050;2022-08-06T18:05:05;0.75;;;0.30;;
35276;SDS011;21401;50.878;8.050;2022-08-06T18:07:31;2.70;;;0.60;;
35276;SDS011;21401;50.878;8.050;2022-08-06T18:09:56;1.13;;;0.30;;
35276;SDS011;21401;50.878;8.050;2022-08-06T18:12:40;2.35;;;0.32;;
35276;SDS011;21401;50.878;8.050;2022-08-06T18:15:07;1.33;;;0.68;;
35276;SDS011;21401;50.878;8.050;2022-08-06T18:17:32;1.08;;;0.50;;
35276;SDS011;21401;50.878;8.050;2022-08-06T18:19:58;2.78;;;1.50;;
35276;SDS011;21401;50.878;8.050;2022-08-06T18:22:24;2.25;;;1.20;;
35276;SDS011;21401;50.878;8.050;2022-08-06T18:24:52;2.10;;;0.40;;
35276;SDS011;21401;50.878;8.050;2022-08-06T18:27:22;1.08;;;0.38;;
35276;SDS011;21401;50.878;8.050;2022-08-06T18:29:49;0.93;;;0.43;;